sensor_id;sensor_type;location;lat;lon;timestamp;pressure;altitude;pressure_sealevel;temperature;humidity
43707;BME280;61348;53.392;-6.248;2022-10-31T00:01:29;99942.63;;;11.73;95.84
43707;BME280;61348;53.392;-6.248;2022-10-31T00:03:56;99937.50;;;11.75;96.00
43707;BME280;61348;53.392;-6.248;2022-10-31T00:06:23;99946.22;;;11.77;96.28
43707;BME280;61348;53.392;-6.248;2022-10-31T00:08:57;99942.72;;;11.80;96.45
43707;BME280;61348;53.392;-6.248;2022-10-31T00:11:25;99942.78;;;11.83;96.53
43707;BME280;61348;53.392;-6.248;2022-10-31T00:13:52;99951.13;;;11.87;96.62
43707;BME280;61348;53.392;-6.248;2022-10-31T00:16:21;99941.28;;;11.89;96.70
43707;BME280;61348;53.392;-6.248;2022-10-31T00:18:49;99940.09;;;11.90;96.91
43707;BME280;61348;53.392;-6.248;2022-10-31T00:21:16;99946.00;;;11.89;96.85
43707;BME280;61348;53.392;-6.248;2022-10-31T00:23:43;99945.59;;;11.87;97.26
43707;BME280;61348;53.392;-6.248;2022-10-31T00:26:10;99941.97;;;11.83;97.25
43707;BME280;61348;53.392;-6.248;2022-10-31T00:28:36;99939.94;;;11.80;97.38
43707;BME280;61348;53.392;-6.248;2022-10-31T00:31:06;99935.94;;;11.77;97.66
43707;BME280;61348;53.392;-6.248;2022-10-31T00:33:34;99943.84;;;11.75;97.87
43707;BME280;61348;53.392;-6.248;2022-10-31T00:36:04;99938.22;;;11.72;98.07
43707;BME280;61348;53.392;-6.248;2022-10-31T00:38:31;99935.03;;;11.70;98.09
43707;BME280;61348;53.392;-6.248;2022-10-31T00:40:58;99925.00;;;11.65;98.15
43707;BME280;61348;53.392;-6.248;2022-10-31T00:43:24;99933.31;;;11.65;98.61
43707;BME280;61348;53.392;-6.248;2022-10-31T00:45:51;99925.81;;;11.66;98.47
43707;BME280;61348;53.392;-6.248;2022-10-31T00:48:18;99934.94;;;11.66;98.32
43707;BME280;61348;53.392;-6.248;2022-10-31T00:50:45;99937.28;;;11.64;98.21
43707;BME280;61348;53.392;-6.248;2022-10-31T00:53:11;99931.75;;;11.64;98.27
43707;BME280;61348;53.392;-6.248;2022-10-31T00:55:38;99935.69;;;11.63;98.27
43707;BME280;61348;53.392;-6.248;2022-10-31T00:58:05;99922.63;;;11.63;98.33
43707;BME280;61348;53.392;-6.248;2022-10-31T01:00:31;99919.47;;;11.65;98.39
43707;BME280;61348;53.392;-6.248;2022-10-31T01:02:58;99915.91;;;11.65;98.30
43707;BME280;61348;53.392;-6.248;2022-10-31T01:05:25;99914.72;;;11.66;98.02
43707;BME280;61348;53.392;-6.248;2022-10-31T01:07:52;99908.03;;;11.67;98.23
43707;BME280;61348;53.392;-6.248;2022-10-31T01:10:18;99908.03;;;11.67;98.14
43707;BME280;61348;53.392;-6.248;2022-10-31T01:12:47;99915.94;;;11.68;98.38
43707;BME280;61348;53.392;-6.248;2022-10-31T01:15:20;99906.50;;;11.69;98.48
43707;BME280;61348;53.392;-6.248;2022-10-31T01:17:47;99910.09;;;11.70;98.52
43707;BME280;61348;53.392;-6.248;2022-10-31T01:20:15;99913.69;;;11.74;98.51
43707;BME280;61348;53.392;-6.248;2022-10-31T01:22:42;99906.59;;;11.76;98.43
43707;BME280;61348;53.392;-6.248;2022-10-31T01:25:09;99910.59;;;11.79;98.49
43707;BME280;61348;53.392;-6.248;2022-10-31T01:27:36;99911.47;;;11.83;98.69
43707;BME280;61348;53.392;-6.248;2022-10-31T01:30:04;99909.91;;;11.85;98.42
43707;BME280;61348;53.392;-6.248;2022-10-31T01:32:31;99907.19;;;11.89;98.68
43707;BME280;61348;53.392;-6.248;2022-10-31T01:34:58;99910.81;;;11.93;98.72
43707;BME280;61348;53.392;-6.248;2022-10-31T01:37:25;99912.47;;;11.97;98.82
43707;BME280;61348;53.392;-6.248;2022-10-31T01:39:51;99903.03;;;12.02;98.75
43707;BME280;61348;53.392;-6.248;2022-10-31T01:42:20;99905.47;;;12.07;98.51
43707;BME280;61348;53.392;-6.248;2022-10-31T01:47:30;99917.41;;;12.11;98.49
43707;BME280;61348;53.392;-6.248;2022-10-31T01:50:00;99904.34;;;12.11;98.60
43707;BME280;61348;53.392;-6.248;2022-10-31T01:52:31;99903.19;;;12.12;98.78
43707;BME280;61348;53.392;-6.248;2022-10-31T01:55:05;99898.06;;;12.14;98.76
43707;BME280;61348;53.392;-6.248;2022-10-31T01:57:35;99897.66;;;12.16;98.77
43707;BME280;61348;53.392;-6.248;2022-10-31T02:00:07;99908.00;;;12.19;98.91
43707;BME280;61348;53.392;-6.248;2022-10-31T02:02:34;99898.94;;;12.22;98.69
43707;BME280;61348;53.392;-6.248;2022-10-31T02:05:05;99896.22;;;12.26;98.53
43707;BME280;61348;53.392;-6.248;2022-10-31T02:07:39;99894.22;;;12.26;98.46
43707;BME280;61348;53.392;-6.248;2022-10-31T02:10:06;99888.66;;;12.23;98.38
43707;BME280;61348;53.392;-6.248;2022-10-31T02:12:33;99880.66;;;12.17;98.07
43707;BME280;61348;53.392;-6.248;2022-10-31T02:15:03;99883.78;;;12.16;98.12
43707;BME280;61348;53.392;-6.248;2022-10-31T02:17:30;99893.66;;;12.13;97.89
43707;BME280;61348;53.392;-6.248;2022-10-31T02:20:09;99890.88;;;12.13;97.83
43707;BME280;61348;53.392;-6.248;2022-10-31T02:31:42;99887.69;;;12.11;97.39
43707;BME280;61348;53.392;-6.248;2022-10-31T02:34:32;99873.88;;;12.15;97.44
43707;BME280;61348;53.392;-6.248;2022-10-31T02:37:14;99869.56;;;12.21;96.85
43707;BME280;61348;53.392;-6.248;2022-10-31T02:47:55;99854.59;;;12.26;96.16
43707;BME280;61348;53.392;-6.248;2022-10-31T02:50:29;99851.84;;;12.29;95.82
43707;BME280;61348;53.392;-6.248;2022-10-31T02:52:57;99849.13;;;12.33;95.85
43707;BME280;61348;53.392;-6.248;2022-10-31T02:57:56;99841.31;;;12.45;95.38
43707;BME280;61348;53.392;-6.248;2022-10-31T03:06:54;99816.38;;;12.49;94.95
43707;BME280;61348;53.392;-6.248;2022-10-31T03:09:27;99823.09;;;12.48;94.88
43707;BME280;61348;53.392;-6.248;2022-10-31T03:12:11;99820.31;;;12.44;94.73
43707;BME280;61348;53.392;-6.248;2022-10-31T03:14:58;99816.72;;;12.44;94.68
43707;BME280;61348;53.392;-6.248;2022-10-31T03:17:37;99834.94;;;12.41;94.82
43707;BME280;61348;53.392;-6.248;2022-10-31T03:20:10;99823.84;;;12.41;94.56
43707;BME280;61348;53.392;-6.248;2022-10-31T03:22:40;99817.50;;;12.41;94.77
43707;BME280;61348;53.392;-6.248;2022-10-31T03:25:10;99817.09;;;12.42;94.81
43707;BME280;61348;53.392;-6.248;2022-10-31T03:27:40;99821.09;;;12.45;94.55
43707;BME280;61348;53.392;-6.248;2022-10-31T03:30:09;99814.81;;;12.51;94.39
43707;BME280;61348;53.392;-6.248;2022-10-31T03:32:54;99818.78;;;12.50;94.17
43707;BME280;61348;53.392;-6.248;2022-10-31T03:35:23;99810.84;;;12.52;94.16
43707;BME280;61348;53.392;-6.248;2022-10-31T03:37:52;99809.28;;;12.51;93.90
43707;BME280;61348;53.392;-6.248;2022-10-31T03:40:21;99809.28;;;12.51;94.00
43707;BME280;61348;53.392;-6.248;2022-10-31T03:42:54;99815.63;;;12.52;93.74
43707;BME280;61348;53.392;-6.248;2022-10-31T03:45:26;99818.88;;;12.57;93.63
43707;BME280;61348;53.392;-6.248;2022-10-31T03:47:54;99809.34;;;12.58;93.33
43707;BME280;61348;53.392;-6.248;2022-10-31T03:50:27;99814.06;;;12.54;93.31
43707;BME280;61348;53.392;-6.248;2022-10-31T03:53:00;99817.97;;;12.50;93.27
43707;BME280;61348;53.392;-6.248;2022-10-31T03:56:01;99805.22;;;12.45;93.09
43707;BME280;61348;53.392;-6.248;2022-10-31T03:58:33;99798.41;;;12.39;93.14
43707;BME280;61348;53.392;-6.248;2022-10-31T04:01:05;99803.56;;;12.37;93.37
43707;BME280;61348;53.392;-6.248;2022-10-31T04:03:36;99800.38;;;12.35;93.48
43707;BME280;61348;53.392;-6.248;2022-10-31T04:06:07;99807.53;;;12.36;93.36
43707;BME280;61348;53.392;-6.248;2022-10-31T04:08:45;99803.19;;;12.39;93.34
43707;BME280;61348;53.392;-6.248;2022-10-31T04:11:18;99803.59;;;12.41;93.53
43707;BME280;61348;53.392;-6.248;2022-10-31T04:13:47;99804.44;;;12.45;93.24
43707;BME280;61348;53.392;-6.248;2022-10-31T04:16:17;99793.38;;;12.48;93.15
43707;BME280;61348;53.392;-6.248;2022-10-31T04:18:44;99800.94;;;12.51;93.23
43707;BME280;61348;53.392;-6.248;2022-10-31T04:21:11;99794.19;;;12.52;93.17
43707;BME280;61348;53.392;-6.248;2022-10-31T04:23:37;99795.41;;;12.51;93.21
43707;BME280;61348;53.392;-6.248;2022-10-31T04:26:04;99797.38;;;12.51;93.39
43707;BME280;61348;53.392;-6.248;2022-10-31T04:28:31;99796.94;;;12.49;93.36
43707;BME280;61348;53.392;-6.248;2022-10-31T04:31:00;99794.97;;;12.49;93.51
43707;BME280;61348;53.392;-6.248;2022-10-31T04:33:27;99800.09;;;12.47;93.50
43707;BME280;61348;53.392;-6.248;2022-10-31T04:35:54;99797.31;;;12.47;93.71
43707;BME280;61348;53.392;-6.248;2022-10-31T04:38:20;99793.38;;;12.48;93.89
43707;BME280;61348;53.392;-6.248;2022-10-31T04:40:47;99794.97;;;12.49;93.85
43707;BME280;61348;53.392;-6.248;2022-10-31T04:43:14;99792.63;;;12.51;93.94
43707;BME280;61348;53.392;-6.248;2022-10-31T04:45:40;99790.25;;;12.53;93.86
43707;BME280;61348;53.392;-6.248;2022-10-31T04:48:07;99787.88;;;12.55;93.88
43707;BME280;61348;53.392;-6.248;2022-10-31T04:50:34;99791.09;;;12.57;93.65
43707;BME280;61348;53.392;-6.248;2022-10-31T04:53:01;99777.63;;;12.59;93.99
43707;BME280;61348;53.392;-6.248;2022-10-31T04:55:28;99776.88;;;12.62;93.61
43707;BME280;61348;53.392;-6.248;2022-10-31T04:57:55;99774.84;;;12.59;93.74
43707;BME280;61348;53.392;-6.248;2022-10-31T05:00:22;99774.44;;;12.57;93.59
43707;BME280;61348;53.392;-6.248;2022-10-31T05:02:54;99773.59;;;12.53;93.48
43707;BME280;61348;53.392;-6.248;2022-10-31T05:05:27;99762.44;;;12.50;93.37
43707;BME280;61348;53.392;-6.248;2022-10-31T05:07:54;99755.28;;;12.45;93.54
43707;BME280;61348;53.392;-6.248;2022-10-31T05:10:24;99752.88;;;12.44;93.41
43707;BME280;61348;53.392;-6.248;2022-10-31T05:12:55;99756.03;;;12.42;93.60
43707;BME280;61348;53.392;-6.248;2022-10-31T05:15:24;99752.09;;;12.43;93.43
43707;BME280;61348;53.392;-6.248;2022-10-31T05:17:52;99761.56;;;12.42;93.31
43707;BME280;61348;53.392;-6.248;2022-10-31T05:20:21;99757.59;;;12.40;93.29
43707;BME280;61348;53.392;-6.248;2022-10-31T05:22:51;99756.38;;;12.37;93.18
43707;BME280;61348;53.392;-6.248;2022-10-31T05:25:19;99759.91;;;12.34;93.19
43707;BME280;61348;53.392;-6.248;2022-10-31T05:27:47;99748.03;;;12.34;93.25
43707;BME280;61348;53.392;-6.248;2022-10-31T05:30:20;99750.38;;;12.32;93.09
43707;BME280;61348;53.392;-6.248;2022-10-31T05:32:49;99742.84;;;12.32;93.27
43707;BME280;61348;53.392;-6.248;2022-10-31T05:35:18;99742.84;;;12.32;93.23
43707;BME280;61348;53.392;-6.248;2022-10-31T05:37:45;99749.25;;;12.36;93.29
43707;BME280;61348;53.392;-6.248;2022-10-31T05:40:13;99731.81;;;12.39;93.13
43707;BME280;61348;53.392;-6.248;2022-10-31T05:42:41;99722.72;;;12.42;93.10
43707;BME280;61348;53.392;-6.248;2022-10-31T05:45:09;99718.81;;;12.47;93.08
43707;BME280;61348;53.392;-6.248;2022-10-31T05:47:36;99721.19;;;12.48;92.97
43707;BME280;61348;53.392;-6.248;2022-10-31T05:50:04;99711.69;;;12.49;93.10
43707;BME280;61348;53.392;-6.248;2022-10-31T05:52:31;99723.56;;;12.50;92.95
43707;BME280;61348;53.392;-6.248;2022-10-31T05:54:58;99721.59;;;12.50;93.02
43707;BME280;61348;53.392;-6.248;2022-10-31T05:57:25;99717.66;;;12.51;93.17
43707;BME280;61348;53.392;-6.248;2022-10-31T05:59:52;99718.88;;;12.54;93.41
43707;BME280;61348;53.392;-6.248;2022-10-31T06:02:21;99718.91;;;12.57;93.58
43707;BME280;61348;53.392;-6.248;2022-10-31T06:04:48;99720.47;;;12.58;93.48
43707;BME280;61348;53.392;-6.248;2022-10-31T06:07:15;99710.19;;;12.59;93.57
43707;BME280;61348;53.392;-6.248;2022-10-31T06:09:44;99706.22;;;12.60;93.33
43707;BME280;61348;53.392;-6.248;2022-10-31T06:12:11;99696.75;;;12.64;93.37
43707;BME280;61348;53.392;-6.248;2022-10-31T06:14:37;99703.50;;;12.67;93.31
43707;BME280;61348;53.392;-6.248;2022-10-31T06:17:04;99698.34;;;12.65;93.40
43707;BME280;61348;53.392;-6.248;2022-10-31T06:19:31;99694.00;;;12.68;93.30
43707;BME280;61348;53.392;-6.248;2022-10-31T06:21:57;99696.78;;;12.71;93.33
43707;BME280;61348;53.392;-6.248;2022-10-31T06:24:24;99680.97;;;12.75;93.26
43707;BME280;61348;53.392;-6.248;2022-10-31T06:26:50;99684.16;;;12.77;93.02
43707;BME280;61348;53.392;-6.248;2022-10-31T06:29:17;99680.19;;;12.78;93.09
43707;BME280;61348;53.392;-6.248;2022-10-31T06:31:44;99685.75;;;12.82;92.86
43707;BME280;61348;53.392;-6.248;2022-10-31T06:34:10;99677.84;;;12.84;92.79
43707;BME280;61348;53.392;-6.248;2022-10-31T06:36:37;99685.41;;;12.83;92.67
43707;BME280;61348;53.392;-6.248;2022-10-31T06:39:04;99681.84;;;12.87;92.68
43707;BME280;61348;53.392;-6.248;2022-10-31T06:41:30;99691.34;;;12.86;92.75
43707;BME280;61348;53.392;-6.248;2022-10-31T06:43:57;99696.16;;;12.89;92.54
43707;BME280;61348;53.392;-6.248;2022-10-31T06:46:24;99686.59;;;12.90;92.43
43707;BME280;61348;53.392;-6.248;2022-10-31T06:48:50;99695.38;;;12.92;92.37
43707;BME280;61348;53.392;-6.248;2022-10-31T06:51:17;99693.00;;;12.94;92.15
43707;BME280;61348;53.392;-6.248;2022-10-31T06:53:43;99697.00;;;12.96;92.16
43707;BME280;61348;53.392;-6.248;2022-10-31T06:56:10;99687.47;;;12.97;92.11
43707;BME280;61348;53.392;-6.248;2022-10-31T06:58:37;99692.22;;;12.97;92.11
43707;BME280;61348;53.392;-6.248;2022-10-31T07:01:04;99696.19;;;12.96;92.19
43707;BME280;61348;53.392;-6.248;2022-10-31T07:03:30;99697.75;;;12.93;92.21
43707;BME280;61348;53.392;-6.248;2022-10-31T07:05:57;99695.78;;;12.94;92.12
43707;BME280;61348;53.392;-6.248;2022-10-31T07:08:24;99698.56;;;12.94;92.15
43707;BME280;61348;53.392;-6.248;2022-10-31T07:10:54;99701.69;;;12.92;92.13
43707;BME280;61348;53.392;-6.248;2022-10-31T07:13:22;99706.50;;;12.92;92.31
43707;BME280;61348;53.392;-6.248;2022-10-31T07:15:54;99717.59;;;12.95;92.56
43707;BME280;61348;53.392;-6.248;2022-10-31T07:18:21;99720.81;;;13.01;92.32
43707;BME280;61348;53.392;-6.248;2022-10-31T07:20:49;99719.25;;;13.03;92.19
43707;BME280;61348;53.392;-6.248;2022-10-31T07:23:15;99724.03;;;13.06;92.37
43707;BME280;61348;53.392;-6.248;2022-10-31T07:25:42;99730.44;;;13.07;92.49
43707;BME280;61348;53.392;-6.248;2022-10-31T07:28:09;99730.44;;;13.07;92.40
43707;BME280;61348;53.392;-6.248;2022-10-31T07:30:37;99720.91;;;13.08;92.35
43707;BME280;61348;53.392;-6.248;2022-10-31T07:33:05;99731.22;;;13.07;92.48
43707;BME280;61348;53.392;-6.248;2022-10-31T07:35:32;99728.00;;;13.05;92.53
43707;BME280;61348;53.392;-6.248;2022-10-31T07:38:08;99729.25;;;13.08;92.62
43707;BME280;61348;53.392;-6.248;2022-10-31T07:40:35;99742.34;;;13.11;92.58
43707;BME280;61348;53.392;-6.248;2022-10-31T07:43:02;99727.28;;;13.12;92.41
43707;BME280;61348;53.392;-6.248;2022-10-31T07:45:28;99742.38;;;13.14;92.17
43707;BME280;61348;53.392;-6.248;2022-10-31T07:47:56;99742.38;;;13.14;92.29
43707;BME280;61348;53.392;-6.248;2022-10-31T07:50:31;99742.44;;;13.18;92.04
43707;BME280;61348;53.392;-6.248;2022-10-31T07:53:03;99753.53;;;13.21;92.04
43707;BME280;61348;53.392;-6.248;2022-10-31T07:55:31;99739.69;;;13.25;91.75
43707;BME280;61348;53.392;-6.248;2022-10-31T07:58:12;99753.59;;;13.25;91.62
43707;BME280;61348;53.392;-6.248;2022-10-31T08:00:41;99743.63;;;13.24;91.69
43707;BME280;61348;53.392;-6.248;2022-10-31T08:03:13;99749.59;;;13.22;91.60
43707;BME280;61348;53.392;-6.248;2022-10-31T08:05:41;99753.94;;;13.20;91.63
43707;BME280;61348;53.392;-6.248;2022-10-31T08:08:08;99742.44;;;13.18;91.80
43707;BME280;61348;53.392;-6.248;2022-10-31T08:10:35;99738.03;;;13.17;91.83
43707;BME280;61348;53.392;-6.248;2022-10-31T08:13:07;99747.22;;;13.21;91.42
43707;BME280;61348;53.392;-6.248;2022-10-31T08:15:35;99736.91;;;13.25;91.56
43707;BME280;61348;53.392;-6.248;2022-10-31T08:18:05;99738.91;;;13.28;91.20
43707;BME280;61348;53.392;-6.248;2022-10-31T08:20:33;99744.88;;;13.30;91.08
43707;BME280;61348;53.392;-6.248;2022-10-31T08:23:01;99734.56;;;13.30;90.97
43707;BME280;61348;53.392;-6.248;2022-10-31T08:25:30;99727.81;;;13.35;90.67
43707;BME280;61348;53.392;-6.248;2022-10-31T08:28:05;99735.38;;;13.38;90.43
43707;BME280;61348;53.392;-6.248;2022-10-31T08:30:34;99746.53;;;13.41;90.37
43707;BME280;61348;53.392;-6.248;2022-10-31T08:33:12;99739.81;;;13.46;90.05
43707;BME280;61348;53.392;-6.248;2022-10-31T08:35:40;99737.88;;;13.50;89.78
43707;BME280;61348;53.392;-6.248;2022-10-31T08:38:09;99737.88;;;13.50;89.59
43707;BME280;61348;53.392;-6.248;2022-10-31T08:40:36;99741.84;;;13.53;89.38
43707;BME280;61348;53.392;-6.248;2022-10-31T08:43:22;99756.97;;;13.55;89.14
43707;BME280;61348;53.392;-6.248;2022-10-31T08:45:49;99740.28;;;13.55;89.04
43707;BME280;61348;53.392;-6.248;2022-10-31T08:48:17;99735.91;;;13.58;88.73
43707;BME280;61348;53.392;-6.248;2022-10-31T08:50:44;99736.31;;;13.60;88.47
43707;BME280;61348;53.392;-6.248;2022-10-31T08:53:12;99740.28;;;13.62;88.30
43707;BME280;61348;53.392;-6.248;2022-10-31T08:55:40;99728.00;;;13.63;88.00
43707;BME280;61348;53.392;-6.248;2022-10-31T08:58:13;99729.97;;;13.66;87.38
43707;BME280;61348;53.392;-6.248;2022-10-31T09:00:41;99732.41;;;13.71;86.97
43707;BME280;61348;53.392;-6.248;2022-10-31T09:03:12;99733.59;;;13.77;86.53
43707;BME280;61348;53.392;-6.248;2022-10-31T09:05:40;99725.66;;;13.79;86.01
43707;BME280;61348;53.392;-6.248;2022-10-31T09:08:07;99745.94;;;13.83;86.03
43707;BME280;61348;53.392;-6.248;2022-10-31T09:10:41;99734.81;;;13.83;85.95
43707;BME280;61348;53.392;-6.248;2022-10-31T09:13:10;99736.44;;;13.84;85.69
43707;BME280;61348;53.392;-6.248;2022-10-31T09:15:39;99752.31;;;13.84;85.63
43707;BME280;61348;53.392;-6.248;2022-10-31T09:18:07;99739.59;;;13.83;85.71
43707;BME280;61348;53.392;-6.248;2022-10-31T09:20:36;99744.34;;;13.82;85.49
43707;BME280;61348;53.392;-6.248;2022-10-31T09:23:06;99751.53;;;13.83;85.50
43707;BME280;61348;53.392;-6.248;2022-10-31T09:25:34;99749.13;;;13.85;85.41
43707;BME280;61348;53.392;-6.248;2022-10-31T09:28:02;99751.91;;;13.85;85.59
43707;BME280;61348;53.392;-6.248;2022-10-31T09:30:32;99747.56;;;13.84;85.75
43707;BME280;61348;53.392;-6.248;2022-10-31T09:33:05;99744.75;;;13.81;85.70
43707;BME280;61348;53.392;-6.248;2022-10-31T09:35:34;99750.31;;;13.81;85.86
43707;BME280;61348;53.392;-6.248;2022-10-31T09:38:03;99744.34;;;13.79;86.13
43707;BME280;61348;53.392;-6.248;2022-10-31T09:40:41;99740.78;;;13.78;86.00
43707;BME280;61348;53.392;-6.248;2022-10-31T09:43:43;99740.38;;;13.80;86.10
43707;BME280;61348;53.392;-6.248;2022-10-31T09:52:18;99741.94;;;13.77;86.06
43707;BME280;61348;53.392;-6.248;2022-10-31T09:54:51;99742.78;;;13.81;86.04
43707;BME280;61348;53.392;-6.248;2022-10-31T09:57:25;99736.44;;;13.84;85.71
43707;BME280;61348;53.392;-6.248;2022-10-31T09:59:53;99730.84;;;13.88;85.69
43707;BME280;61348;53.392;-6.248;2022-10-31T10:05:00;99718.16;;;13.94;85.60
43707;BME280;61348;53.392;-6.248;2022-10-31T10:13:41;99725.38;;;14.13;84.75
43707;BME280;61348;53.392;-6.248;2022-10-31T10:19:44;99737.34;;;14.24;84.20
43707;BME280;61348;53.392;-6.248;2022-10-31T10:24:55;99730.19;;;14.30;84.39
43707;BME280;61348;53.392;-6.248;2022-10-31T10:30:21;99734.22;;;14.39;83.82
43707;BME280;61348;53.392;-6.248;2022-10-31T10:32:56;99744.59;;;14.42;83.55
43707;BME280;61348;53.392;-6.248;2022-10-31T10:35:34;99741.41;;;14.47;83.42
43707;BME280;61348;53.392;-6.248;2022-10-31T10:40:47;99739.03;;;14.53;83.40
43707;BME280;61348;53.392;-6.248;2022-10-31T10:43:24;99725.50;;;14.58;83.14
43707;BME280;61348;53.392;-6.248;2022-10-31T10:49:18;99729.91;;;14.77;82.51
43707;BME280;61348;53.392;-6.248;2022-10-31T10:51:59;99739.81;;;14.85;82.20
43707;BME280;61348;53.392;-6.248;2022-10-31T10:54:59;99745.03;;;14.90;81.65
43707;BME280;61348;53.392;-6.248;2022-10-31T11:00:24;99735.06;;;15.03;81.43
43707;BME280;61348;53.392;-6.248;2022-10-31T11:02:52;99736.22;;;15.13;80.98
43707;BME280;61348;53.392;-6.248;2022-10-31T11:06:15;99735.84;;;15.21;81.10
43707;BME280;61348;53.392;-6.248;2022-10-31T11:08:26;99741.81;;;15.27;80.98
43707;BME280;61348;53.392;-6.248;2022-10-31T11:10:59;99744.16;;;15.36;80.48
43707;BME280;61348;53.392;-6.248;2022-10-31T11:13:27;99738.19;;;15.41;80.16
43707;BME280;61348;53.392;-6.248;2022-10-31T11:16:07;99739.75;;;15.45;79.87
43707;BME280;61348;53.392;-6.248;2022-10-31T11:18:44;99726.63;;;15.42;79.63
43707;BME280;61348;53.392;-6.248;2022-10-31T11:23:47;99725.81;;;15.38;79.52
43707;BME280;61348;53.392;-6.248;2022-10-31T11:26:20;99732.63;;;15.41;79.73
43707;BME280;61348;53.392;-6.248;2022-10-31T11:28:57;99726.22;;;15.40;79.61
43707;BME280;61348;53.392;-6.248;2022-10-31T11:31:25;99738.19;;;15.41;79.44
43707;BME280;61348;53.392;-6.248;2022-10-31T11:34:01;99730.22;;;15.43;79.45
43707;BME280;61348;53.392;-6.248;2022-10-31T11:36:39;99729.03;;;15.47;79.42
43707;BME280;61348;53.392;-6.248;2022-10-31T11:39:16;99727.00;;;15.55;79.37
43707;BME280;61348;53.392;-6.248;2022-10-31T11:41:44;99733.78;;;15.61;79.43
43707;BME280;61348;53.392;-6.248;2022-10-31T11:44:15;99729.38;;;15.63;79.13
43707;BME280;61348;53.392;-6.248;2022-10-31T11:46:57;99723.81;;;15.60;78.83
43707;BME280;61348;53.392;-6.248;2022-10-31T11:51:59;99732.59;;;15.55;78.55
43707;BME280;61348;53.392;-6.248;2022-10-31T11:54:46;99736.97;;;15.56;78.65
43707;BME280;61348;53.392;-6.248;2022-10-31T11:57:28;99736.59;;;15.43;78.30
43707;BME280;61348;53.392;-6.248;2022-10-31T12:00:20;99736.22;;;15.27;78.40
43707;BME280;61348;53.392;-6.248;2022-10-31T12:02:48;99727.06;;;15.12;78.79
43707;BME280;61348;53.392;-6.248;2022-10-31T12:05:20;99713.56;;;15.00;79.07
43707;BME280;61348;53.392;-6.248;2022-10-31T12:07:49;99707.97;;;14.93;79.22
43707;BME280;61348;53.392;-6.248;2022-10-31T12:10:20;99703.59;;;14.92;79.57
43707;BME280;61348;53.392;-6.248;2022-10-31T12:18:09;99693.25;;;14.93;80.04
43707;BME280;61348;53.392;-6.248;2022-10-31T12:21:13;99681.28;;;14.96;79.98
43707;BME280;61348;53.392;-6.248;2022-10-31T12:23:47;99673.72;;;15.00;80.42
43707;BME280;61348;53.392;-6.248;2022-10-31T12:26:31;99664.16;;;15.04;80.40
43707;BME280;61348;53.392;-6.248;2022-10-31T12:40:38;99662.56;;;15.14;81.79
43707;BME280;61348;53.392;-6.248;2022-10-31T12:45:53;99662.16;;;15.12;82.09
43707;BME280;61348;53.392;-6.248;2022-10-31T12:54:16;99645.88;;;15.03;82.40
43707;BME280;61348;53.392;-6.248;2022-10-31T12:57:01;99647.44;;;15.04;82.53
43707;BME280;61348;53.392;-6.248;2022-10-31T13:00:31;99641.06;;;15.04;82.46
43707;BME280;61348;53.392;-6.248;2022-10-31T13:05:33;99628.34;;;14.99;82.43
43707;BME280;61348;53.392;-6.248;2022-10-31T13:08:10;99634.72;;;14.96;82.40
43707;BME280;61348;53.392;-6.248;2022-10-31T13:10:44;99621.97;;;14.92;82.38
43707;BME280;61348;53.392;-6.248;2022-10-31T13:13:16;99612.84;;;14.88;82.90
43707;BME280;61348;53.392;-6.248;2022-10-31T13:15:51;99617.22;;;14.85;82.92
43707;BME280;61348;53.392;-6.248;2022-10-31T13:18:33;99619.22;;;14.81;82.93
43707;BME280;61348;53.392;-6.248;2022-10-31T13:21:04;99633.56;;;14.76;82.94
43707;BME280;61348;53.392;-6.248;2022-10-31T13:23:33;99622.81;;;14.71;83.03
43707;BME280;61348;53.392;-6.248;2022-10-31T13:29:23;99630.00;;;14.58;83.59
43707;BME280;61348;53.392;-6.248;2022-10-31T13:31:57;99636.38;;;14.48;84.03
43707;BME280;61348;53.392;-6.248;2022-10-31T13:35:08;99631.56;;;14.38;84.53
43707;BME280;61348;53.392;-6.248;2022-10-31T13:37:37;99625.59;;;14.29;84.83
43707;BME280;61348;53.392;-6.248;2022-10-31T13:40:33;99616.44;;;14.25;84.93
43707;BME280;61348;53.392;-6.248;2022-10-31T13:45:33;99609.69;;;14.19;85.70
43707;BME280;61348;53.392;-6.248;2022-10-31T13:50:33;99613.25;;;14.16;86.01
43707;BME280;61348;53.392;-6.248;2022-10-31T13:53:19;99612.06;;;14.17;86.08
43707;BME280;61348;53.392;-6.248;2022-10-31T13:56:03;99598.13;;;14.17;86.05
43707;BME280;61348;53.392;-6.248;2022-10-31T13:58:31;99601.31;;;14.15;85.89
43707;BME280;61348;53.392;-6.248;2022-10-31T14:01:18;99590.19;;;14.15;85.67
43707;BME280;61348;53.392;-6.248;2022-10-31T14:03:58;99565.94;;;14.16;85.64
43707;BME280;61348;53.392;-6.248;2022-10-31T14:07:10;99585.00;;;14.17;85.76
43707;BME280;61348;53.392;-6.248;2022-10-31T14:09:49;99606.47;;;14.17;85.54
43707;BME280;61348;53.392;-6.248;2022-10-31T14:15:22;99585.41;;;14.23;85.67
43707;BME280;61348;53.392;-6.248;2022-10-31T14:18:03;99587.03;;;14.24;85.51
43707;BME280;61348;53.392;-6.248;2022-10-31T14:20:40;99595.75;;;14.26;85.44
43707;BME280;61348;53.392;-6.248;2022-10-31T14:23:12;99587.81;;;14.24;85.42
43707;BME280;61348;53.392;-6.248;2022-10-31T14:25:39;99587.03;;;14.24;85.31
43707;BME280;61348;53.392;-6.248;2022-10-31T14:28:42;99586.22;;;14.23;85.40
43707;BME280;61348;53.392;-6.248;2022-10-31T14:31:29;99592.59;;;14.24;85.28
43707;BME280;61348;53.392;-6.248;2022-10-31T14:39:32;99573.50;;;14.19;85.55
43707;BME280;61348;53.392;-6.248;2022-10-31T14:45:25;99580.63;;;14.20;85.58
43707;BME280;61348;53.392;-6.248;2022-10-31T14:48:08;99576.28;;;14.19;85.49
43707;BME280;61348;53.392;-6.248;2022-10-31T14:50:45;99576.66;;;14.17;85.41
43707;BME280;61348;53.392;-6.248;2022-10-31T14:53:29;99575.09;;;14.16;85.32
43707;BME280;61348;53.392;-6.248;2022-10-31T14:55:57;99573.50;;;14.15;85.19
43707;BME280;61348;53.392;-6.248;2022-10-31T14:58:41;99564.34;;;14.15;84.92
43707;BME280;61348;53.392;-6.248;2022-10-31T15:01:23;99571.13;;;14.14;84.82
43707;BME280;61348;53.392;-6.248;2022-10-31T15:03:51;99556.78;;;14.12;84.69
43707;BME280;61348;53.392;-6.248;2022-10-31T15:07:05;99566.75;;;14.06;84.84
43707;BME280;61348;53.392;-6.248;2022-10-31T15:09:36;99581.44;;;13.99;85.03